sensor_id;sensor_type;location;lat;lon;timestamp;P1;durP1;ratioP1;P2;durP2;ratioP2
85921;SDS011;76459;41.484;22.090;2024-03-02T00:01:54;27.70;;;14.30;;
85921;SDS011;76459;41.484;22.090;2024-03-02T00:04:19;20.33;;;12.57;;
85921;SDS011;76459;41.484;22.090;2024-03-02T00:06:45;24.48;;;14.63;;
85921;SDS011;76459;41.484;22.090;2024-03-02T00:09:10;25.38;;;15.90;;
85921;SDS011;76459;41.484;22.090;2024-03-02T00:11:38;31.05;;;17.38;;
85921;SDS011;76459;41.484;22.090;2024-03-02T00:14:04;28.65;;;17.15;;
85921;SDS011;76459;41.484;22.090;2024-03-02T00:16:32;29.25;;;16.88;;
85921;SDS011;76459;41.484;22.090;2024-03-02T00:19:05;26.38;;;14.65;;
85921;SDS011;76459;41.484;22.090;2024-03-02T00:21:32;20.40;;;13.05;;
85921;SDS011;76459;41.484;22.090;2024-03-02T00:23:58;21.65;;;15.10;;
85921;SDS011;76459;41.484;22.090;2024-03-02T00:26:25;21.98;;;14.68;;
85921;SDS011;76459;41.484;22.090;2024-03-02T00:28:52;20.98;;;13.13;;
85921;SDS011;76459;41.484;22.090;2024-03-02T00:31:22;18.70;;;11.73;;
85921;SDS011;76459;41.484;22.090;2024-03-02T00:33:48;18.13;;;10.88;;
85921;SDS011;76459;41.484;22.090;2024-03-02T00:36:15;15.98;;;10.70;;
85921;SDS011;76459;41.484;22.090;2024-03-02T00:38:44;18.38;;;11.43;;
85921;SDS011;76459;41.484;22.090;2024-03-02T00:41:31;15.02;;;9.77;;
85921;SDS011;76459;41.484;22.090;2024-03-02T00:46:31;17.20;;;9.95;;
85921;SDS011;76459;41.484;22.090;2024-03-02T00:49:20;17.75;;;10.32;;
85921;SDS011;76459;41.484;22.090;2024-03-02T00:51:49;21.25;;;12.55;;
85921;SDS011;76459;41.484;22.090;2024-03-02T00:54:25;20.88;;;12.13;;
85921;SDS011;76459;41.484;22.090;2024-03-02T00:56:54;19.13;;;12.38;;
85921;SDS011;76459;41.484;22.090;2024-03-02T00:59:21;17.90;;;12.15;;
85921;SDS011;76459;41.484;22.090;2024-03-02T01:01:48;22.55;;;12.57;;
85921;SDS011;76459;41.484;22.090;2024-03-02T01:04:14;18.38;;;10.85;;
85921;SDS011;76459;41.484;22.090;2024-03-02T01:06:40;18.38;;;11.18;;
85921;SDS011;76459;41.484;22.090;2024-03-02T01:09:07;16.38;;;10.82;;
85921;SDS011;76459;41.484;22.090;2024-03-02T01:11:33;21.92;;;13.25;;
85921;SDS011;76459;41.484;22.090;2024-03-02T01:13:59;17.45;;;11.68;;
85921;SDS011;76459;41.484;22.090;2024-03-02T01:16:24;19.35;;;11.52;;
85921;SDS011;76459;41.484;22.090;2024-03-02T01:18:50;17.65;;;12.18;;
85921;SDS011;76459;41.484;22.090;2024-03-02T01:21:15;19.45;;;11.52;;
85921;SDS011;76459;41.484;22.090;2024-03-02T01:23:41;21.90;;;13.60;;
85921;SDS011;76459;41.484;22.090;2024-03-02T01:26:06;18.80;;;11.43;;
85921;SDS011;76459;41.484;22.090;2024-03-02T01:28:32;18.42;;;11.18;;
85921;SDS011;76459;41.484;22.090;2024-03-02T01:30:58;18.63;;;11.93;;
85921;SDS011;76459;41.484;22.090;2024-03-02T01:33:23;27.00;;;13.68;;
85921;SDS011;76459;41.484;22.090;2024-03-02T01:35:49;26.42;;;13.68;;
85921;SDS011;76459;41.484;22.090;2024-03-02T01:38:15;23.98;;;13.15;;
85921;SDS011;76459;41.484;22.090;2024-03-02T01:40:40;22.83;;;14.95;;
85921;SDS011;76459;41.484;22.090;2024-03-02T01:43:07;19.73;;;12.70;;
85921;SDS011;76459;41.484;22.090;2024-03-02T01:45:33;16.52;;;11.10;;
85921;SDS011;76459;41.484;22.090;2024-03-02T01:48:01;15.05;;;9.80;;
85921;SDS011;76459;41.484;22.090;2024-03-02T01:50:28;17.15;;;11.23;;
85921;SDS011;76459;41.484;22.090;2024-03-02T01:52:58;18.55;;;10.00;;
85921;SDS011;76459;41.484;22.090;2024-03-02T01:57:50;15.48;;;10.13;;
85921;SDS011;76459;41.484;22.090;2024-03-02T02:00:18;18.63;;;11.45;;
85921;SDS011;76459;41.484;22.090;2024-03-02T02:02:44;18.67;;;11.07;;
85921;SDS011;76459;41.484;22.090;2024-03-02T02:05:11;19.55;;;12.27;;
85921;SDS011;76459;41.484;22.090;2024-03-02T02:07:37;21.73;;;13.20;;
85921;SDS011;76459;41.484;22.090;2024-03-02T02:10:03;22.08;;;14.02;;
85921;SDS011;76459;41.484;22.090;2024-03-02T02:12:29;28.23;;;15.98;;
85921;SDS011;76459;41.484;22.090;2024-03-02T02:14:55;23.30;;;13.75;;
85921;SDS011;76459;41.484;22.090;2024-03-02T02:17:20;20.48;;;13.00;;
85921;SDS011;76459;41.484;22.090;2024-03-02T02:19:46;18.92;;;11.98;;
85921;SDS011;76459;41.484;22.090;2024-03-02T02:22:12;20.27;;;12.32;;
85921;SDS011;76459;41.484;22.090;2024-03-02T02:24:41;19.00;;;11.60;;
85921;SDS011;76459;41.484;22.090;2024-03-02T02:27:07;18.80;;;11.70;;
85921;SDS011;76459;41.484;22.090;2024-03-02T02:29:33;19.63;;;12.05;;
85921;SDS011;76459;41.484;22.090;2024-03-02T02:31:59;18.90;;;12.02;;
85921;SDS011;76459;41.484;22.090;2024-03-02T02:34:25;19.95;;;11.68;;
85921;SDS011;76459;41.484;22.090;2024-03-02T02:36:50;18.85;;;12.27;;
85921;SDS011;76459;41.484;22.090;2024-03-02T02:39:17;21.65;;;13.00;;
85921;SDS011;76459;41.484;22.090;2024-03-02T02:41:45;21.10;;;13.30;;
85921;SDS011;76459;41.484;22.090;2024-03-02T02:44:11;23.90;;;13.32;;
85921;SDS011;76459;41.484;22.090;2024-03-02T02:46:38;20.10;;;12.43;;
85921;SDS011;76459;41.484;22.090;2024-03-02T02:49:04;19.25;;;13.23;;
85921;SDS011;76459;41.484;22.090;2024-03-02T02:51:29;20.88;;;11.77;;
85921;SDS011;76459;41.484;22.090;2024-03-02T02:53:55;17.92;;;11.20;;
85921;SDS011;76459;41.484;22.090;2024-03-02T02:56:20;20.30;;;12.73;;
85921;SDS011;76459;41.484;22.090;2024-03-02T02:58:46;18.90;;;12.27;;
85921;SDS011;76459;41.484;22.090;2024-03-02T03:01:11;20.88;;;12.80;;
85921;SDS011;76459;41.484;22.090;2024-03-02T03:03:37;25.92;;;13.57;;
85921;SDS011;76459;41.484;22.090;2024-03-02T03:06:03;22.13;;;12.80;;
85921;SDS011;76459;41.484;22.090;2024-03-02T03:08:28;19.70;;;11.23;;
85921;SDS011;76459;41.484;22.090;2024-03-02T03:10:54;18.23;;;11.00;;
85921;SDS011;76459;41.484;22.090;2024-03-02T03:13:20;16.13;;;10.63;;
85921;SDS011;76459;41.484;22.090;2024-03-02T03:15:45;19.17;;;10.57;;
85921;SDS011;76459;41.484;22.090;2024-03-02T03:18:11;19.13;;;11.32;;
85921;SDS011;76459;41.484;22.090;2024-03-02T03:20:36;17.50;;;11.00;;
85921;SDS011;76459;41.484;22.090;2024-03-02T03:23:02;20.95;;;10.77;;
85921;SDS011;76459;41.484;22.090;2024-03-02T03:25:29;19.45;;;11.15;;
85921;SDS011;76459;41.484;22.090;2024-03-02T03:27:55;22.55;;;13.73;;
85921;SDS011;76459;41.484;22.090;2024-03-02T03:30:20;24.70;;;14.18;;
85921;SDS011;76459;41.484;22.090;2024-03-02T03:32:46;23.17;;;13.70;;
85921;SDS011;76459;41.484;22.090;2024-03-02T03:35:13;21.48;;;13.20;;
85921;SDS011;76459;41.484;22.090;2024-03-02T03:37:41;17.90;;;11.20;;
85921;SDS011;76459;41.484;22.090;2024-03-02T03:40:07;19.67;;;11.43;;
85921;SDS011;76459;41.484;22.090;2024-03-02T03:42:35;21.88;;;10.90;;
85921;SDS011;76459;41.484;22.090;2024-03-02T03:45:02;20.52;;;12.40;;
85921;SDS011;76459;41.484;22.090;2024-03-02T03:47:30;20.33;;;12.88;;
85921;SDS011;76459;41.484;22.090;2024-03-02T03:49:57;20.95;;;11.63;;
85921;SDS011;76459;41.484;22.090;2024-03-02T03:52:23;24.77;;;14.48;;
85921;SDS011;76459;41.484;22.090;2024-03-02T03:54:48;32.92;;;17.92;;
85921;SDS011;76459;41.484;22.090;2024-03-02T03:57:14;30.67;;;17.58;;
85921;SDS011;76459;41.484;22.090;2024-03-02T03:59:40;36.78;;;23.05;;
85921;SDS011;76459;41.484;22.090;2024-03-02T04:02:06;29.65;;;19.45;;
85921;SDS011;76459;41.484;22.090;2024-03-02T04:04:32;25.67;;;15.52;;
85921;SDS011;76459;41.484;22.090;2024-03-02T04:06:59;30.38;;;16.58;;
85921;SDS011;76459;41.484;22.090;2024-03-02T04:09:24;21.70;;;14.38;;
85921;SDS011;76459;41.484;22.090;2024-03-02T04:11:50;23.42;;;13.13;;
85921;SDS011;76459;41.484;22.090;2024-03-02T04:14:16;22.15;;;14.15;;
85921;SDS011;76459;41.484;22.090;2024-03-02T04:16:42;20.95;;;12.73;;
85921;SDS011;76459;41.484;22.090;2024-03-02T04:19:08;27.42;;;14.27;;
85921;SDS011;76459;41.484;22.090;2024-03-02T04:21:33;24.60;;;14.32;;
85921;SDS011;76459;41.484;22.090;2024-03-02T04:23:59;20.92;;;12.43;;
85921;SDS011;76459;41.484;22.090;2024-03-02T04:26:25;21.40;;;12.23;;
85921;SDS011;76459;41.484;22.090;2024-03-02T04:28:51;25.98;;;11.82;;
85921;SDS011;76459;41.484;22.090;2024-03-02T04:31:17;23.60;;;11.55;;
85921;SDS011;76459;41.484;22.090;2024-03-02T04:33:43;22.15;;;13.05;;
85921;SDS011;76459;41.484;22.090;2024-03-02T04:36:08;21.80;;;12.55;;
85921;SDS011;76459;41.484;22.090;2024-03-02T04:38:37;25.17;;;12.68;;
85921;SDS011;76459;41.484;22.090;2024-03-02T04:41:04;18.90;;;11.02;;
85921;SDS011;76459;41.484;22.090;2024-03-02T04:43:33;30.73;;;12.63;;
85921;SDS011;76459;41.484;22.090;2024-03-02T04:45:59;28.45;;;14.35;;
85921;SDS011;76459;41.484;22.090;2024-03-02T04:48:25;19.48;;;10.35;;
85921;SDS011;76459;41.484;22.090;2024-03-02T04:50:51;19.67;;;11.13;;
85921;SDS011;76459;41.484;22.090;2024-03-02T04:53:17;23.15;;;11.95;;
85921;SDS011;76459;41.484;22.090;2024-03-02T04:55:42;21.23;;;11.82;;
85921;SDS011;76459;41.484;22.090;2024-03-02T04:58:08;22.55;;;12.32;;
85921;SDS011;76459;41.484;22.090;2024-03-02T05:00:34;26.60;;;14.32;;
85921;SDS011;76459;41.484;22.090;2024-03-02T05:03:00;26.48;;;14.32;;
85921;SDS011;76459;41.484;22.090;2024-03-02T05:05:26;17.95;;;11.40;;
85921;SDS011;76459;41.484;22.090;2024-03-02T05:07:52;21.10;;;12.93;;
85921;SDS011;76459;41.484;22.090;2024-03-02T05:10:18;23.08;;;12.95;;
85921;SDS011;76459;41.484;22.090;2024-03-02T05:12:43;19.52;;;12.30;;
85921;SDS011;76459;41.484;22.090;2024-03-02T05:15:09;19.50;;;11.40;;
85921;SDS011;76459;41.484;22.090;2024-03-02T05:17:36;15.25;;;11.18;;
85921;SDS011;76459;41.484;22.090;2024-03-02T05:20:06;12.95;;;9.13;;
85921;SDS011;76459;41.484;22.090;2024-03-02T05:22:35;12.00;;;8.20;;
85921;SDS011;76459;41.484;22.090;2024-03-02T05:25:02;15.05;;;9.73;;
85921;SDS011;76459;41.484;22.090;2024-03-02T05:27:29;13.02;;;9.05;;
85921;SDS011;76459;41.484;22.090;2024-03-02T05:29:55;19.33;;;11.57;;
85921;SDS011;76459;41.484;22.090;2024-03-02T05:32:21;16.40;;;10.68;;
85921;SDS011;76459;41.484;22.090;2024-03-02T05:34:47;19.40;;;10.07;;
85921;SDS011;76459;41.484;22.090;2024-03-02T05:37:12;18.13;;;10.32;;
85921;SDS011;76459;41.484;22.090;2024-03-02T05:39:38;16.27;;;9.98;;
85921;SDS011;76459;41.484;22.090;2024-03-02T05:42:03;17.10;;;10.75;;
85921;SDS011;76459;41.484;22.090;2024-03-02T05:44:29;20.20;;;11.20;;
85921;SDS011;76459;41.484;22.090;2024-03-02T05:46:55;14.52;;;9.35;;
85921;SDS011;76459;41.484;22.090;2024-03-02T05:49:21;16.23;;;9.00;;
85921;SDS011;76459;41.484;22.090;2024-03-02T05:51:47;20.25;;;11.75;;
85921;SDS011;76459;41.484;22.090;2024-03-02T05:54:12;19.65;;;11.30;;
85921;SDS011;76459;41.484;22.090;2024-03-02T05:56:38;19.75;;;11.38;;
85921;SDS011;76459;41.484;22.090;2024-03-02T05:59:03;15.95;;;9.57;;
85921;SDS011;76459;41.484;22.090;2024-03-02T06:01:35;17.45;;;11.15;;
85921;SDS011;76459;41.484;22.090;2024-03-02T06:04:00;25.17;;;14.75;;
85921;SDS011;76459;41.484;22.090;2024-03-02T06:06:26;26.63;;;14.85;;
85921;SDS011;76459;41.484;22.090;2024-03-02T06:08:51;25.27;;;14.38;;
85921;SDS011;76459;41.484;22.090;2024-03-02T06:11:18;23.60;;;13.80;;
85921;SDS011;76459;41.484;22.090;2024-03-02T06:13:45;22.13;;;11.95;;
85921;SDS011;76459;41.484;22.090;2024-03-02T06:16:10;18.50;;;12.48;;
85921;SDS011;76459;41.484;22.090;2024-03-02T06:18:36;20.88;;;13.65;;
85921;SDS011;76459;41.484;22.090;2024-03-02T06:21:02;23.08;;;13.40;;
85921;SDS011;76459;41.484;22.090;2024-03-02T06:23:28;24.13;;;14.48;;
85921;SDS011;76459;41.484;22.090;2024-03-02T06:25:54;26.27;;;15.48;;
85921;SDS011;76459;41.484;22.090;2024-03-02T06:28:19;21.08;;;14.63;;
85921;SDS011;76459;41.484;22.090;2024-03-02T06:30:46;22.80;;;13.65;;
85921;SDS011;76459;41.484;22.090;2024-03-02T06:33:11;24.00;;;14.38;;
85921;SDS011;76459;41.484;22.090;2024-03-02T06:35:37;23.73;;;12.90;;
85921;SDS011;76459;41.484;22.090;2024-03-02T06:38:04;20.98;;;13.40;;
85921;SDS011;76459;41.484;22.090;2024-03-02T06:40:29;23.58;;;12.70;;
85921;SDS011;76459;41.484;22.090;2024-03-02T06:42:55;21.55;;;12.57;;
85921;SDS011;76459;41.484;22.090;2024-03-02T06:45:20;17.20;;;11.10;;
85921;SDS011;76459;41.484;22.090;2024-03-02T06:47:46;20.80;;;12.20;;
85921;SDS011;76459;41.484;22.090;2024-03-02T06:50:12;21.23;;;12.48;;
85921;SDS011;76459;41.484;22.090;2024-03-02T06:52:37;18.92;;;11.13;;
85921;SDS011;76459;41.484;22.090;2024-03-02T06:55:03;14.77;;;10.15;;
85921;SDS011;76459;41.484;22.090;2024-03-02T06:57:30;17.50;;;11.80;;
85921;SDS011;76459;41.484;22.090;2024-03-02T06:59:55;19.80;;;12.38;;
85921;SDS011;76459;41.484;22.090;2024-03-02T07:02:26;17.10;;;11.52;;
85921;SDS011;76459;41.484;22.090;2024-03-02T07:04:54;17.13;;;12.07;;
85921;SDS011;76459;41.484;22.090;2024-03-02T07:07:20;19.25;;;12.98;;
85921;SDS011;76459;41.484;22.090;2024-03-02T07:09:46;23.15;;;14.82;;
85921;SDS011;76459;41.484;22.090;2024-03-02T07:12:13;23.63;;;15.18;;
85921;SDS011;76459;41.484;22.090;2024-03-02T07:14:39;21.42;;;13.00;;
85921;SDS011;76459;41.484;22.090;2024-03-02T07:17:22;18.60;;;11.13;;
85921;SDS011;76459;41.484;22.090;2024-03-02T07:19:48;17.27;;;10.90;;
85921;SDS011;76459;41.484;22.090;2024-03-02T07:22:14;18.77;;;12.57;;
85921;SDS011;76459;41.484;22.090;2024-03-02T07:24:42;20.60;;;13.60;;
85921;SDS011;76459;41.484;22.090;2024-03-02T07:27:09;20.20;;;12.25;;
85921;SDS011;76459;41.484;22.090;2024-03-02T07:29:35;25.38;;;14.48;;
85921;SDS011;76459;41.484;22.090;2024-03-02T07:32:01;18.98;;;12.32;;
85921;SDS011;76459;41.484;22.090;2024-03-02T07:34:27;24.38;;;12.38;;
85921;SDS011;76459;41.484;22.090;2024-03-02T07:36:52;15.40;;;10.43;;
85921;SDS011;76459;41.484;22.090;2024-03-02T07:39:18;16.15;;;9.95;;
85921;SDS011;76459;41.484;22.090;2024-03-02T07:41:45;15.43;;;8.38;;
85921;SDS011;76459;41.484;22.090;2024-03-02T07:44:11;13.98;;;9.13;;
85921;SDS011;76459;41.484;22.090;2024-03-02T07:46:48;15.05;;;9.93;;
85921;SDS011;76459;41.484;22.090;2024-03-02T07:49:17;17.65;;;10.15;;
85921;SDS011;76459;41.484;22.090;2024-03-02T07:51:46;16.45;;;10.95;;
85921;SDS011;76459;41.484;22.090;2024-03-02T07:54:11;14.38;;;9.05;;
85921;SDS011;76459;41.484;22.090;2024-03-02T07:56:37;16.38;;;9.85;;
85921;SDS011;76459;41.484;22.090;2024-03-02T07:59:03;15.27;;;10.23;;
85921;SDS011;76459;41.484;22.090;2024-03-02T08:01:32;12.80;;;8.13;;
85921;SDS011;76459;41.484;22.090;2024-03-02T08:03:58;12.50;;;8.25;;
85921;SDS011;76459;41.484;22.090;2024-03-02T08:06:28;14.10;;;8.52;;
85921;SDS011;76459;41.484;22.090;2024-03-02T08:08:55;13.00;;;9.02;;
85921;SDS011;76459;41.484;22.090;2024-03-02T08:11:25;14.50;;;9.43;;
85921;SDS011;76459;41.484;22.090;2024-03-02T08:13:52;15.88;;;10.57;;
85921;SDS011;76459;41.484;22.090;2024-03-02T08:16:20;15.35;;;8.32;;
85921;SDS011;76459;41.484;22.090;2024-03-02T08:18:48;11.88;;;7.70;;
85921;SDS011;76459;41.484;22.090;2024-03-02T08:21:14;14.93;;;8.50;;
85921;SDS011;76459;41.484;22.090;2024-03-02T08:23:40;14.38;;;7.47;;
85921;SDS011;76459;41.484;22.090;2024-03-02T08:26:07;12.27;;;5.97;;
85921;SDS011;76459;41.484;22.090;2024-03-02T08:28:33;15.07;;;6.57;;
85921;SDS011;76459;41.484;22.090;2024-03-02T08:30:58;12.50;;;5.35;;
85921;SDS011;76459;41.484;22.090;2024-03-02T08:33:24;17.63;;;5.93;;
85921;SDS011;76459;41.484;22.090;2024-03-02T08:35:50;18.27;;;6.25;;
85921;SDS011;76459;41.484;22.090;2024-03-02T08:38:16;13.05;;;7.35;;
85921;SDS011;76459;41.484;22.090;2024-03-02T08:40:41;17.48;;;8.35;;
85921;SDS011;76459;41.484;22.090;2024-03-02T08:43:07;14.32;;;5.35;;
85921;SDS011;76459;41.484;22.090;2024-03-02T08:45:32;21.35;;;6.80;;
85921;SDS011;76459;41.484;22.090;2024-03-02T08:48:00;12.90;;;5.53;;
85921;SDS011;76459;41.484;22.090;2024-03-02T08:50:25;8.35;;;5.10;;
85921;SDS011;76459;41.484;22.090;2024-03-02T08:52:51;14.82;;;6.40;;
85921;SDS011;76459;41.484;22.090;2024-03-02T08:55:17;21.25;;;5.75;;
85921;SDS011;76459;41.484;22.090;2024-03-02T08:57:42;28.27;;;9.70;;
85921;SDS011;76459;41.484;22.090;2024-03-02T09:00:08;22.25;;;8.07;;
85921;SDS011;76459;41.484;22.090;2024-03-02T09:02:34;10.98;;;6.97;;
85921;SDS011;76459;41.484;22.090;2024-03-02T09:05:00;18.10;;;7.00;;
85921;SDS011;76459;41.484;22.090;2024-03-02T09:07:26;14.20;;;7.40;;
85921;SDS011;76459;41.484;22.090;2024-03-02T09:09:52;9.98;;;6.05;;
85921;SDS011;76459;41.484;22.090;2024-03-02T09:12:18;12.82;;;6.90;;
85921;SDS011;76459;41.484;22.090;2024-03-02T09:14:44;18.17;;;6.55;;
85921;SDS011;76459;41.484;22.090;2024-03-02T09:17:10;8.90;;;4.70;;
85921;SDS011;76459;41.484;22.090;2024-03-02T09:19:37;20.55;;;6.50;;
85921;SDS011;76459;41.484;22.090;2024-03-02T09:22:03;14.93;;;6.22;;
85921;SDS011;76459;41.484;22.090;2024-03-02T09:24:30;17.75;;;7.40;;
85921;SDS011;76459;41.484;22.090;2024-03-02T09:26:58;31.48;;;9.70;;
85921;SDS011;76459;41.484;22.090;2024-03-02T09:29:24;23.45;;;7.75;;
85921;SDS011;76459;41.484;22.090;2024-03-02T09:31:50;15.93;;;5.43;;
85921;SDS011;76459;41.484;22.090;2024-03-02T09:34:16;15.25;;;7.72;;
85921;SDS011;76459;41.484;22.090;2024-03-02T09:36:42;21.45;;;10.02;;
85921;SDS011;76459;41.484;22.090;2024-03-02T09:39:08;20.23;;;7.15;;
85921;SDS011;76459;41.484;22.090;2024-03-02T09:41:35;14.68;;;4.88;;
85921;SDS011;76459;41.484;22.090;2024-03-02T09:44:04;12.63;;;5.55;;
85921;SDS011;76459;41.484;22.090;2024-03-02T09:46:31;8.57;;;4.63;;
85921;SDS011;76459;41.484;22.090;2024-03-02T09:48:56;8.45;;;4.20;;
85921;SDS011;76459;41.484;22.090;2024-03-02T09:51:24;12.27;;;4.88;;
85921;SDS011;76459;41.484;22.090;2024-03-02T09:53:50;8.10;;;4.35;;
85921;SDS011;76459;41.484;22.090;2024-03-02T09:56:15;5.95;;;4.38;;
85921;SDS011;76459;41.484;22.090;2024-03-02T09:58:41;12.90;;;4.07;;
85921;SDS011;76459;41.484;22.090;2024-03-02T10:01:07;11.18;;;3.95;;
85921;SDS011;76459;41.484;22.090;2024-03-02T10:03:36;9.90;;;4.05;;
85921;SDS011;76459;41.484;22.090;2024-03-02T10:08:50;14.23;;;5.95;;
85921;SDS011;76459;41.484;22.090;2024-03-02T10:11:26;16.33;;;7.32;;
85921;SDS011;76459;41.484;22.090;2024-03-02T10:14:31;18.63;;;6.03;;
85921;SDS011;76459;41.484;22.090;2024-03-02T10:16:50;14.55;;;5.25;;
85921;SDS011;76459;41.484;22.090;2024-03-02T10:19:16;20.38;;;7.45;;
85921;SDS011;76459;41.484;22.090;2024-03-02T10:21:43;17.95;;;5.43;;
85921;SDS011;76459;41.484;22.090;2024-03-02T10:24:12;13.88;;;4.35;;
85921;SDS011;76459;41.484;22.090;2024-03-02T10:26:38;9.65;;;3.25;;
85921;SDS011;76459;41.484;22.090;2024-03-02T10:29:04;6.70;;;2.58;;
85921;SDS011;76459;41.484;22.090;2024-03-02T10:31:30;7.18;;;3.55;;
85921;SDS011;76459;41.484;22.090;2024-03-02T10:33:55;6.00;;;2.67;;
85921;SDS011;76459;41.484;22.090;2024-03-02T10:36:23;9.68;;;3.45;;
85921;SDS011;76459;41.484;22.090;2024-03-02T10:38:50;13.57;;;3.00;;
85921;SDS011;76459;41.484;22.090;2024-03-02T10:41:21;3.67;;;2.08;;
85921;SDS011;76459;41.484;22.090;2024-03-02T10:43:50;5.30;;;2.20;;
85921;SDS011;76459;41.484;22.090;2024-03-02T10:46:20;4.70;;;2.47;;
85921;SDS011;76459;41.484;22.090;2024-03-02T10:48:47;6.05;;;2.83;;
85921;SDS011;76459;41.484;22.090;2024-03-02T10:51:14;5.45;;;2.28;;
85921;SDS011;76459;41.484;22.090;2024-03-02T10:53:40;14.13;;;8.05;;
85921;SDS011;76459;41.484;22.090;2024-03-02T10:56:07;9.32;;;5.30;;
85921;SDS011;76459;41.484;22.090;2024-03-02T10:58:34;6.47;;;2.92;;
85921;SDS011;76459;41.484;22.090;2024-03-02T11:01:02;9.52;;;2.72;;
85921;SDS011;76459;41.484;22.090;2024-03-02T11:03:33;12.40;;;3.92;;
85921;SDS011;76459;41.484;22.090;2024-03-02T11:06:03;5.97;;;2.83;;
85921;SDS011;76459;41.484;22.090;2024-03-02T11:08:33;7.63;;;3.05;;
85921;SDS011;76459;41.484;22.090;2024-03-02T11:11:06;6.15;;;3.17;;
85921;SDS011;76459;41.484;22.090;2024-03-02T11:13:36;5.63;;;2.20;;
85921;SDS011;76459;41.484;22.090;2024-03-02T11:16:12;8.77;;;2.50;;
85921;SDS011;76459;41.484;22.090;2024-03-02T11:18:52;8.95;;;3.38;;
85921;SDS011;76459;41.484;22.090;2024-03-02T11:21:18;5.22;;;2.80;;
85921;SDS011;76459;41.484;22.090;2024-03-02T11:23:44;6.03;;;2.30;;
85921;SDS011;76459;41.484;22.090;2024-03-02T11:26:22;10.60;;;2.85;;
85921;SDS011;76459;41.484;22.090;2024-03-02T11:28:52;9.02;;;3.03;;
85921;SDS011;76459;41.484;22.090;2024-03-02T11:31:18;13.55;;;2.47;;
85921;SDS011;76459;41.484;22.090;2024-03-02T11:33:44;13.70;;;3.97;;
85921;SDS011;76459;41.484;22.090;2024-03-02T11:36:09;10.50;;;2.95;;
85921;SDS011;76459;41.484;22.090;2024-03-02T11:38:35;10.68;;;3.00;;
85921;SDS011;76459;41.484;22.090;2024-03-02T11:41:01;10.93;;;5.10;;
85921;SDS011;76459;41.484;22.090;2024-03-02T11:43:30;14.55;;;4.00;;
85921;SDS011;76459;41.484;22.090;2024-03-02T11:46:03;9.05;;;2.70;;
85921;SDS011;76459;41.484;22.090;2024-03-02T11:51:00;6.90;;;2.83;;
85921;SDS011;76459;41.484;22.090;2024-03-02T11:53:26;4.30;;;2.25;;
85921;SDS011;76459;41.484;22.090;2024-03-02T11:55:57;8.30;;;3.92;;
85921;SDS011;76459;41.484;22.090;2024-03-02T11:58:24;10.60;;;3.10;;
85921;SDS011;76459;41.484;22.090;2024-03-02T12:00:52;11.32;;;3.67;;
85921;SDS011;76459;41.484;22.090;2024-03-02T12:03:18;11.30;;;2.88;;
85921;SDS011;76459;41.484;22.090;2024-03-02T12:05:52;10.50;;;3.40;;
85921;SDS011;76459;41.484;22.090;2024-03-02T12:08:19;11.25;;;3.97;;
85921;SDS011;76459;41.484;22.090;2024-03-02T12:11:06;10.35;;;3.72;;
85921;SDS011;76459;41.484;22.090;2024-03-02T12:13:31;13.63;;;3.33;;
85921;SDS011;76459;41.484;22.090;2024-03-02T12:15:58;7.38;;;3.65;;
85921;SDS011;76459;41.484;22.090;2024-03-02T12:18:24;5.97;;;2.53;;
85921;SDS011;76459;41.484;22.090;2024-03-02T12:20:50;11.57;;;3.20;;
85921;SDS011;76459;41.484;22.090;2024-03-02T12:23:23;6.45;;;3.47;;
85921;SDS011;76459;41.484;22.090;2024-03-02T12:25:49;6.38;;;2.35;;
85921;SDS011;76459;41.484;22.090;2024-03-02T12:28:15;6.78;;;2.58;;
85921;SDS011;76459;41.484;22.090;2024-03-02T12:30:41;13.15;;;3.45;;
85921;SDS011;76459;41.484;22.090;2024-03-02T12:33:07;20.13;;;5.13;;
85921;SDS011;76459;41.484;22.090;2024-03-02T12:35:32;12.23;;;4.55;;
85921;SDS011;76459;41.484;22.090;2024-03-02T12:37:58;10.70;;;3.22;;
85921;SDS011;76459;41.484;22.090;2024-03-02T12:40:23;8.60;;;2.72;;
85921;SDS011;76459;41.484;22.090;2024-03-02T12:42:49;15.85;;;4.28;;
85921;SDS011;76459;41.484;22.090;2024-03-02T12:45:15;8.45;;;3.90;;
85921;SDS011;76459;41.484;22.090;2024-03-02T12:47:49;14.07;;;4.40;;
85921;SDS011;76459;41.484;22.090;2024-03-02T12:50:14;18.33;;;4.85;;
85921;SDS011;76459;41.484;22.090;2024-03-02T12:52:40;20.35;;;5.07;;
85921;SDS011;76459;41.484;22.090;2024-03-02T12:55:06;13.32;;;5.85;;
85921;SDS011;76459;41.484;22.090;2024-03-02T12:57:32;10.70;;;3.88;;
85921;SDS011;76459;41.484;22.090;2024-03-02T13:02:35;11.48;;;4.32;;
85921;SDS011;76459;41.484;22.090;2024-03-02T13:05:02;15.35;;;4.38;;
85921;SDS011;76459;41.484;22.090;2024-03-02T13:07:28;11.15;;;3.92;;
85921;SDS011;76459;41.484;22.090;2024-03-02T13:09:55;15.10;;;4.07;;
85921;SDS011;76459;41.484;22.090;2024-03-02T13:12:22;23.70;;;5.43;;
85921;SDS011;76459;41.484;22.090;2024-03-02T13:14:49;15.07;;;4.20;;
85921;SDS011;76459;41.484;22.090;2024-03-02T13:17:17;5.93;;;3.47;;
85921;SDS011;76459;41.484;22.090;2024-03-02T13:19:53;7.32;;;3.78;;
85921;SDS011;76459;41.484;22.090;2024-03-02T13:22:22;19.48;;;5.68;;
85921;SDS011;76459;41.484;22.090;2024-03-02T13:24:49;13.77;;;4.45;;
85921;SDS011;76459;41.484;22.090;2024-03-02T13:27:15;10.85;;;5.38;;
85921;SDS011;76459;41.484;22.090;2024-03-02T13:29:41;16.38;;;3.88;;
85921;SDS011;76459;41.484;22.090;2024-03-02T13:32:07;5.53;;;2.53;;
85921;SDS011;76459;41.484;22.090;2024-03-02T13:34:35;11.35;;;3.72;;
85921;SDS011;76459;41.484;22.090;2024-03-02T13:37:02;7.47;;;3.28;;
85921;SDS011;76459;41.484;22.090;2024-03-02T13:39:28;10.05;;;2.75;;
85921;SDS011;76459;41.484;22.090;2024-03-02T13:41:57;8.75;;;2.65;;
85921;SDS011;76459;41.484;22.090;2024-03-02T13:44:30;10.90;;;3.63;;
85921;SDS011;76459;41.484;22.090;2024-03-02T13:46:56;10.10;;;3.78;;
85921;SDS011;76459;41.484;22.090;2024-03-02T13:49:23;11.88;;;3.90;;
85921;SDS011;76459;41.484;22.090;2024-03-02T13:51:50;10.30;;;3.70;;
85921;SDS011;76459;41.484;22.090;2024-03-02T13:54:16;10.68;;;3.40;;
85921;SDS011;76459;41.484;22.090;2024-03-02T13:56:41;12.00;;;2.70;;
85921;SDS011;76459;41.484;22.090;2024-03-02T13:59:07;9.77;;;2.60;;
85921;SDS011;76459;41.484;22.090;2024-03-02T14:01:33;10.85;;;3.00;;
85921;SDS011;76459;41.484;22.090;2024-03-02T14:03:59;14.25;;;3.00;;
85921;SDS011;76459;41.484;22.090;2024-03-02T14:06:26;12.63;;;2.70;;
85921;SDS011;76459;41.484;22.090;2024-03-02T14:08:52;17.73;;;4.82;;
85921;SDS011;76459;41.484;22.090;2024-03-02T14:11:18;17.48;;;4.63;;
85921;SDS011;76459;41.484;22.090;2024-03-02T14:13:44;51.55;;;9.70;;
85921;SDS011;76459;41.484;22.090;2024-03-02T14:16:15;16.02;;;3.20;;
85921;SDS011;76459;41.484;22.090;2024-03-02T14:18:41;10.23;;;2.72;;
85921;SDS011;76459;41.484;22.090;2024-03-02T14:21:07;10.65;;;3.95;;
85921;SDS011;76459;41.484;22.090;2024-03-02T14:23:33;9.15;;;2.85;;
85921;SDS011;76459;41.484;22.090;2024-03-02T14:25:58;6.68;;;2.45;;
85921;SDS011;76459;41.484;22.090;2024-03-02T14:28:24;6.80;;;3.25;;